Time;durP1;ratioP1;P1;durP2;ratioP2;P2;SDS_P1;SDS_P2;PMS_P1;PMS_P2;Temp;Humidity;BMP_temperature;BMP_pressure;BME280_temperature;BME280_humidity;BME280_pressure;Samples;Min_cycle;Max_cycle;Signal;HPM_P1;HPM_P2
2024/04/10 00:02:15;;;;;;;;;;;;;;;;;;7559954;19;19982;-71
2024/04/10 00:04:46;;;;;;;;;;;;;;;;;;7562181;19;19918;-71
2024/04/10 00:07:18;;;;;;;;;;;;;;;;;;7555277;19;19931;-72
2024/04/10 00:09:50;;;;;;;;;;;;;;;;;;7573965;19;19923;-72
2024/04/10 00:12:21;;;;;;;;;;;;;;;;;;7559336;19;20859;-71
2024/04/10 00:14:53;;;;;;;;;;;;;;;;;;7574723;19;19931;-72
2024/04/10 00:17:24;;;;;;;;;;;;;;;;;;7568395;19;20756;-72
2024/04/10 00:19:56;;;;;;;;;;;;;;;;;;7568507;19;19943;-73
2024/04/10 00:22:27;;;;;;;;;;;;;;;;;;7578693;19;21366;-73
2024/04/10 00:25:01;;;;;;;;;;;;;;;;;;7575989;19;20365;-73
2024/04/10 00:27:32;;;;;;;;;;;;;;;;;;7580860;19;20908;-73
2024/04/10 00:30:04;;;;;;;;;;;;;;;;;;7577515;19;20587;-72
2024/04/10 00:32:35;;;;;;;;;;;;;;;;;;7575273;19;20978;-73
2024/04/10 00:35:07;;;;;;;;;;;;;;;;;;7576795;19;19922;-72
2024/04/10 00:37:39;;;;;;;;;;;;;;;;;;7578109;19;19918;-73
2024/04/10 00:40:10;;;;;;;;;;;;;;;;;;7580601;19;20273;-73
2024/04/10 00:42:42;;;;;;;;;;;;;;;;;;7572695;19;19936;-73
2024/04/10 00:45:13;;;;;;;;;;;;;;;;;;7574285;19;19914;-74
2024/04/10 00:47:45;;;;;;;;;;;;;;;;;;7566097;19;20486;-73
2024/04/10 00:50:16;;;;;;;;;;;;;;;;;;7572467;19;19931;-72
2024/04/10 00:52:47;;;;;;;;;;;;;;;;;;7580028;19;20483;-73
2024/04/10 00:55:21;;;;;;;;;;;;;;;;;;7581496;19;21491;-73
2024/04/10 00:57:52;;;;;;;;;;;;;;;;;;7590109;19;19923;-72
2024/04/10 01:00:24;;;;;;;;;;;;;;;;;;7579566;19;19929;-74
2024/04/10 01:02:55;;;;;;;;;;;;;;;;;;7579658;19;19926;-72
2024/04/10 01:05:27;;;;;;;;;;;;;;;;;;7577922;19;19919;-73
2024/04/10 01:07:58;;;;;;;;;;;;;;;;;;7579498;19;20312;-73
2024/04/10 01:10:30;;;;;;;;;;;;;;;;;;7589846;19;19918;-74
2024/04/10 01:13:02;;;;;;;;;;;;;;;;;;7598600;19;20265;-74
2024/04/10 01:15:33;;;;;;;;;;;;;;;;;;7579038;19;20600;-74
2024/04/10 01:18:05;;;;;;;;;;;;;;;;;;7561342;19;19919;-75
2024/04/10 01:20:36;;;;;;;;;;;;;;;;;;7573851;19;19954;-74
2024/04/10 01:23:08;;;;;;;;;;;;;;;;;;7582252;19;19941;-73
2024/04/10 01:25:39;;;;;;;;;;;;;;;;;;7572945;19;19994;-73
2024/04/10 01:28:11;;;;;;;;;;;;;;;;;;7561712;19;19923;-72
2024/04/10 01:30:42;;;;;;;;;;;;;;;;;;7574020;19;19927;-73
2024/04/10 01:33:14;;;;;;;;;;;;;;;;;;7581446;19;20011;-73
2024/04/10 01:35:46;;;;;;;;;;;;;;;;;;7573822;19;19931;-73
2024/04/10 01:38:17;;;;;;;;;;;;;;;;;;7567376;19;19976;-73
2024/04/10 01:40:48;;;;;;;;;;;;;;;;;;7573408;19;19922;-73
2024/04/10 01:43:20;;;;;;;;;;;;;;;;;;7581378;19;20333;-72
2024/04/10 01:45:52;;;;;;;;;;;;;;;;;;7583993;19;20630;-73
2024/04/10 01:48:23;;;;;;;;;;;;;;;;;;7578608;19;20376;-73
2024/04/10 01:50:55;;;;;;;;;;;;;;;;;;7568241;19;20322;-73
2024/04/10 01:53:26;;;;;;;;;;;;;;;;;;7579701;19;19929;-73
2024/04/10 01:55:57;;;;;;;;;;;;;;;;;;7592538;19;19954;-73
2024/04/10 01:58:31;;;;;;;;;;;;;;;;;;7569557;19;19933;-74
2024/04/10 02:01:03;;;;;;;;;;;;;;;;;;7575669;19;20600;-74
2024/04/10 02:03:34;;;;;;;;;;;;;;;;;;7570485;19;19966;-73
2024/04/10 02:06:06;;;;;;;;;;;;;;;;;;7584759;19;19926;-72
2024/04/10 02:08:37;;;;;;;;;;;;;;;;;;7572931;19;19926;-73
2024/04/10 02:11:28;;;;;;;;;;;;;;;;;;7575587;19;19995;-72
2024/04/10 02:14:00;;;;;;;;;;;;;;;;;;7561346;19;20024;-73
2024/04/10 02:16:31;;;;;;;;;;;;;;;;;;7573688;19;19990;-73
2024/04/10 02:19:03;;;;;;;;;;;;;;;;;;7580708;19;20615;-73
2024/04/10 02:21:34;;;;;;;;;;;;;;;;;;7570433;19;19927;-73
2024/04/10 02:24:09;;;;;;;;;;;;;;;;;;7584306;19;20745;-73
2024/04/10 02:26:40;;;;;;;;;;;;;;;;;;7571469;19;20014;-73
2024/04/10 02:29:11;;;;;;;;;;;;;;;;;;7578765;19;20335;-73
2024/04/10 02:31:43;;;;;;;;;;;;;;;;;;7577845;19;19979;-73
2024/04/10 02:34:15;;;;;;;;;;;;;;;;;;7575343;19;20616;-72
2024/04/10 02:36:47;;;;;;;;;;;;;;;;;;7569446;19;19926;-73
2024/04/10 02:39:18;;;;;;;;;;;;;;;;;;7590255;19;20381;-73
2024/04/10 02:41:50;;;;;;;;;;;;;;;;;;7569652;19;19986;-73
2024/04/10 02:44:21;;;;;;;;;;;;;;;;;;7567281;19;19929;-73
2024/04/10 02:46:52;;;;;;;;;;;;;;;;;;7546403;19;21018;-72
2024/04/10 02:49:24;;;;;;;;;;;;;;;;;;7561601;19;19926;-73
2024/04/10 02:51:56;;;;;;;;;;;;;;;;;;7561975;19;19923;-74
2024/04/10 02:54:27;;;;;;;;;;;;;;;;;;7564364;19;19936;-74
2024/04/10 02:56:59;;;;;;;;;;;;;;;;;;7565675;19;19939;-73
2024/04/10 02:59:31;;;;;;;;;;;;;;;;;;7555155;19;19926;-73
2024/04/10 03:02:03;;;;;;;;;;;;;;;;;;7542564;19;20259;-73
2024/04/10 03:04:34;;;;;;;;;;;;;;;;;;7576384;19;20449;-72
2024/04/10 03:07:09;;;;;;;;;;;;;;;;;;7577011;19;20403;-74
2024/04/10 03:09:40;;;;;;;;;;;;;;;;;;7562577;19;19947;-74
2024/04/10 03:12:12;;;;;;;;;;;;;;;;;;7563815;19;19931;-73
2024/04/10 03:14:43;;;;;;;;;;;;;;;;;;7570078;19;19930;-74
2024/04/10 03:17:16;;;;;;;;;;;;;;;;;;7561887;19;21588;-74
2024/04/10 03:19:48;;;;;;;;;;;;;;;;;;7540579;19;20542;-74
2024/04/10 03:22:19;;;;;;;;;;;;;;;;;;7546242;19;19933;-73
2024/04/10 03:24:51;;;;;;;;;;;;;;;;;;7536842;19;20324;-72
2024/04/10 03:27:22;;;;;;;;;;;;;;;;;;7541474;19;19934;-72
2024/04/10 03:29:54;;;;;;;;;;;;;;;;;;7556988;19;21597;-71
2024/04/10 03:32:25;;;;;;;;;;;;;;;;;;7547660;19;19918;-72
2024/04/10 03:34:57;;;;;;;;;;;;;;;;;;7555972;19;19950;-73
2024/04/10 03:37:28;;;;;;;;;;;;;;;;;;7550180;19;19935;-72
2024/04/10 03:40:00;;;;;;;;;;;;;;;;;;7565543;19;19947;-71
2024/04/10 03:42:33;;;;;;;;;;;;;;;;;;7543785;19;19998;-72
2024/04/10 03:45:05;;;;;;;;;;;;;;;;;;7558612;19;20590;-72
2024/04/10 03:47:38;;;;;;;;;;;;;;;;;;7554095;19;19915;-71
2024/04/10 03:50:10;;;;;;;;;;;;;;;;;;7558658;19;20032;-72
2024/04/10 03:52:41;;;;;;;;;;;;;;;;;;7555554;19;19922;-71
2024/04/10 03:55:13;;;;;;;;;;;;;;;;;;7580456;19;19923;-70
2024/04/10 03:57:44;;;;;;;;;;;;;;;;;;7564686;19;19917;-73
2024/04/10 04:00:15;;;;;;;;;;;;;;;;;;7540964;19;21431;-72
2024/04/10 04:02:50;;;;;;;;;;;;;;;;;;7539954;19;19929;-72
2024/04/10 04:05:23;;;;;;;;;;;;;;;;;;7562397;19;19926;-72
2024/04/10 04:07:55;;;;;;;;;;;;;;;;;;7539483;19;20493;-72
2024/04/10 04:10:26;;;;;;;;;;;;;;;;;;7565108;19;19922;-72
2024/04/10 04:12:58;;;;;;;;;;;;;;;;;;7568948;19;19918;-72
2024/04/10 04:15:29;;;;;;;;;;;;;;;;;;7549635;19;19922;-71
2024/04/10 04:18:01;;;;;;;;;;;;;;;;;;7536328;19;19930;-71
2024/04/10 04:20:33;;;;;;;;;;;;;;;;;;7556585;19;19907;-72
2024/04/10 04:23:04;;;;;;;;;;;;;;;;;;7545650;19;19951;-72
2024/04/10 04:25:36;;;;;;;;;;;;;;;;;;7546850;19;20023;-72
2024/04/10 04:28:08;;;;;;;;;;;;;;;;;;7562655;19;19927;-73
2024/04/10 04:30:39;;;;;;;;;;;;;;;;;;7548082;19;19918;-73
2024/04/10 04:33:11;;;;;;;;;;;;;;;;;;7545667;19;19922;-72
2024/04/10 04:35:43;;;;;;;;;;;;;;;;;;7552721;19;20434;-72
2024/04/10 04:38:15;;;;;;;;;;;;;;;;;;7518038;19;19919;-73
2024/04/10 04:40:47;;;;;;;;;;;;;;;;;;7574026;19;19921;-73
2024/04/10 04:43:18;;;;;;;;;;;;;;;;;;7575747;19;19915;-71
2024/04/10 04:45:51;;;;;;;;;;;;;;;;;;7548931;19;20934;-74
2024/04/10 04:48:22;;;;;;;;;;;;;;;;;;7546522;19;19926;-74
2024/04/10 04:50:54;;;;;;;;;;;;;;;;;;7556356;19;19926;-71
2024/04/10 04:53:26;;;;;;;;;;;;;;;;;;7556256;19;19931;-74
2024/04/10 04:55:57;;;;;;;;;;;;;;;;;;7534447;19;19927;-73
2024/04/10 04:58:29;;;;;;;;;;;;;;;;;;7547498;19;19926;-73
2024/04/10 05:01:00;;;;;;;;;;;;;;;;;;7548678;19;19919;-74
2024/04/10 05:06:22;;;;;;;;;;;;;;;;;;7563109;19;19982;-70
2024/04/10 05:08:54;;;;;;;;;;;;;;;;;;7583950;19;20046;-74
2024/04/10 05:11:25;;;;;;;;;;;;;;;;;;7557081;19;19930;-73
2024/04/10 05:13:56;;;;;;;;;;;;;;;;;;7558339;19;19923;-72
2024/04/10 05:16:28;;;;;;;;;;;;;;;;;;7549657;19;19926;-74
2024/04/10 05:19:04;;;;;;;;;;;;;;;;;;7549059;19;19922;-71
2024/04/10 05:21:36;;;;;;;;;;;;;;;;;;7585048;19;19923;-71
2024/04/10 05:24:08;;;;;;;;;;;;;;;;;;7545766;19;19923;-70
2024/04/10 05:26:40;;;;;;;;;;;;;;;;;;7577219;19;20327;-71
2024/04/10 05:29:11;;;;;;;;;;;;;;;;;;7575658;19;19915;-71
2024/04/10 05:31:42;;;;;;;;;;;;;;;;;;7574265;19;19939;-71
2024/04/10 05:34:14;;;;;;;;;;;;;;;;;;7551877;19;19927;-71
2024/04/10 05:36:46;;;;;;;;;;;;;;;;;;7560329;19;20758;-70
2024/04/10 05:39:18;;;;;;;;;;;;;;;;;;7565562;19;19943;-71
2024/04/10 05:41:50;;;;;;;;;;;;;;;;;;7584495;19;20354;-72
2024/04/10 05:44:21;;;;;;;;;;;;;;;;;;7579018;19;19927;-72
2024/04/10 05:46:53;;;;;;;;;;;;;;;;;;7587875;19;19910;-70
2024/04/10 05:49:24;;;;;;;;;;;;;;;;;;7581819;19;20273;-73
2024/04/10 05:51:56;;;;;;;;;;;;;;;;;;7594999;19;19946;-74
2024/04/10 05:54:27;;;;;;;;;;;;;;;;;;7589996;19;19922;-73
2024/04/10 05:57:00;;;;;;;;;;;;;;;;;;7584512;19;19919;-71
2024/04/10 05:59:32;;;;;;;;;;;;;;;;;;7589975;19;19923;-72
2024/04/10 06:02:03;;;;;;;;;;;;;;;;;;7587763;19;19950;-71
2024/04/10 06:04:35;;;;;;;;;;;;;;;;;;7580768;19;19927;-71
2024/04/10 06:07:06;;;;;;;;;;;;;;;;;;7589924;19;19918;-72
2024/04/10 06:09:38;;;;;;;;;;;;;;;;;;7583396;19;19930;-71
2024/04/10 06:12:09;;;;;;;;;;;;;;;;;;7598245;19;19949;-72
2024/04/10 06:14:41;;;;;;;;;;;;;;;;;;7593231;19;20789;-71
2024/04/10 06:17:12;;;;;;;;;;;;;;;;;;7581661;19;19929;-72
2024/04/10 06:19:44;;;;;;;;;;;;;;;;;;7584526;19;19944;-72
2024/04/10 06:22:15;;;;;;;;;;;;;;;;;;7583840;19;19923;-71
2024/04/10 06:24:46;;;;;;;;;;;;;;;;;;7583644;19;19923;-71
2024/04/10 06:27:18;;;;;;;;;;;;;;;;;;7598840;19;19934;-72
2024/04/10 06:29:49;;;;;;;;;;;;;;;;;;7592192;19;19919;-71
2024/04/10 06:32:21;;;;;;;;;;;;;;;;;;7586568;19;20968;-72
2024/04/10 06:34:53;;;;;;;;;;;;;;;;;;7590638;19;19972;-71
2024/04/10 06:37:24;;;;;;;;;;;;;;;;;;7596253;19;19948;-70
2024/04/10 06:39:55;;;;;;;;;;;;;;;;;;7581297;19;19918;-71
2024/04/10 06:42:27;;;;;;;;;;;;;;;;;;7583358;19;19918;-71
2024/04/10 06:44:58;;;;;;;;;;;;;;;;;;7589320;19;20397;-74
2024/04/10 06:47:31;;;;;;;;;;;;;;;;;;7581505;19;19919;-70
2024/04/10 06:50:02;;;;;;;;;;;;;;;;;;7583846;19;19915;-70
2024/04/10 06:52:34;;;;;;;;;;;;;;;;;;7588528;19;20487;-72
2024/04/10 06:55:06;;;;;;;;;;;;;;;;;;7576823;19;19919;-71
2024/04/10 06:57:38;;;;;;;;;;;;;;;;;;7577061;19;19926;-71
2024/04/10 07:00:12;;;;;;;;;;;;;;;;;;7588614;19;20002;-71
2024/04/10 07:02:44;;;;;;;;;;;;;;;;;;7577085;19;20356;-70
2024/04/10 07:05:16;;;;;;;;;;;;;;;;;;7565143;19;19994;-71
2024/04/10 07:07:48;;;;;;;;;;;;;;;;;;7587528;19;19927;-71
2024/04/10 07:10:20;;;;;;;;;;;;;;;;;;7592799;19;19923;-72
2024/04/10 07:12:51;;;;;;;;;;;;;;;;;;7581147;19;19941;-72
2024/04/10 07:15:23;;;;;;;;;;;;;;;;;;7597126;19;20024;-72
2024/04/10 07:17:54;;;;;;;;;;;;;;;;;;7575609;19;19930;-71
2024/04/10 07:20:26;;;;;;;;;;;;;;;;;;7576426;19;19922;-71
2024/04/10 07:22:58;;;;;;;;;;;;;;;;;;7574843;19;19942;-71
2024/04/10 07:25:30;;;;;;;;;;;;;;;;;;7568748;19;19919;-71
2024/04/10 07:28:01;;;;;;;;;;;;;;;;;;7578825;19;19930;-71
2024/04/10 07:30:33;;;;;;;;;;;;;;;;;;7586543;19;19927;-72
2024/04/10 07:33:05;;;;;;;;;;;;;;;;;;7577917;19;20684;-72
2024/04/10 07:35:36;;;;;;;;;;;;;;;;;;7574323;19;19930;-72
2024/04/10 07:38:08;;;;;;;;;;;;;;;;;;7573549;19;20211;-72
2024/04/10 07:40:39;;;;;;;;;;;;;;;;;;7581196;19;19922;-71
2024/04/10 07:43:10;;;;;;;;;;;;;;;;;;7589619;19;20756;-74
2024/04/10 07:45:42;;;;;;;;;;;;;;;;;;7594629;19;20717;-73
2024/04/10 07:48:13;;;;;;;;;;;;;;;;;;7578708;19;19941;-71
2024/04/10 07:50:45;;;;;;;;;;;;;;;;;;7590863;19;19934;-71
2024/04/10 07:53:16;;;;;;;;;;;;;;;;;;7567421;19;19923;-71
2024/04/10 07:55:48;;;;;;;;;;;;;;;;;;7578677;19;19938;-71
2024/04/10 07:58:20;;;;;;;;;;;;;;;;;;7571345;19;21055;-71
2024/04/10 08:00:56;;;;;;;;;;;;;;;;;;7586933;19;19938;-72
2024/04/10 08:03:28;;;;;;;;;;;;;;;;;;7564588;19;20857;-72
2024/04/10 08:05:59;;;;;;;;;;;;;;;;;;7587594;19;19919;-72
2024/04/10 08:08:31;;;;;;;;;;;;;;;;;;7576304;19;20293;-72
2024/04/10 08:11:02;;;;;;;;;;;;;;;;;;7571888;19;20273;-72
2024/04/10 08:13:34;;;;;;;;;;;;;;;;;;7579613;19;19930;-71
2024/04/10 08:16:05;;;;;;;;;;;;;;;;;;7575819;19;19915;-71
2024/04/10 08:18:37;;;;;;;;;;;;;;;;;;7582814;19;19931;-72
2024/04/10 08:21:08;;;;;;;;;;;;;;;;;;7589431;19;19995;-72
2024/04/10 08:23:40;;;;;;;;;;;;;;;;;;7603143;19;20568;-71
2024/04/10 08:26:11;;;;;;;;;;;;;;;;;;7571784;19;19918;-71
2024/04/10 08:28:48;;;;;;;;;;;;;;;;;;7583335;19;21447;-71
2024/04/10 08:31:21;;;;;;;;;;;;;;;;;;7574156;19;20272;-71
2024/04/10 08:33:52;;;;;;;;;;;;;;;;;;7583462;19;20372;-72
2024/04/10 08:36:24;;;;;;;;;;;;;;;;;;7581053;19;19937;-72
2024/04/10 08:38:57;;;;;;;;;;;;;;;;;;7570638;19;19949;-71
2024/04/10 08:41:28;;;;;;;;;;;;;;;;;;7566524;19;19922;-72
2024/04/10 08:44:00;;;;;;;;;;;;;;;;;;7602718;19;21425;-71
2024/04/10 08:46:33;;;;;;;;;;;;;;;;;;7598157;19;19926;-72
2024/04/10 08:49:04;;;;;;;;;;;;;;;;;;7587367;19;20412;-72
2024/04/10 08:51:36;;;;;;;;;;;;;;;;;;7603549;19;20380;-71
2024/04/10 08:54:07;;;;;;;;;;;;;;;;;;7582177;19;19919;-72
2024/04/10 08:56:39;;;;;;;;;;;;;;;;;;7586047;19;19927;-71
2024/04/10 08:59:10;;;;;;;;;;;;;;;;;;7580373;19;19923;-72
2024/04/10 09:01:43;;;;;;;;;;;;;;;;;;7591966;19;19930;-72
2024/04/10 09:04:17;;;;;;;;;;;;;;;;;;7584213;19;19934;-72
2024/04/10 09:06:49;;;;;;;;;;;;;;;;;;7594781;19;20281;-72
2024/04/10 09:09:21;;;;;;;;;;;;;;;;;;7602200;19;19978;-71
2024/04/10 09:11:52;;;;;;;;;;;;;;;;;;7594231;19;22311;-71
2024/04/10 09:14:23;;;;;;;;;;;;;;;;;;7578114;19;19931;-72
2024/04/10 09:16:55;;;;;;;;;;;;;;;;;;7587333;19;19919;-72
2024/04/10 09:19:27;;;;;;;;;;;;;;;;;;7588970;19;19926;-71
2024/04/10 09:21:59;;;;;;;;;;;;;;;;;;7588013;19;20002;-71
2024/04/10 09:24:30;;;;;;;;;;;;;;;;;;7581342;19;19949;-73
2024/04/10 09:27:02;;;;;;;;;;;;;;;;;;7578169;19;19922;-72
2024/04/10 09:29:33;;;;;;;;;;;;;;;;;;7569839;19;19929;-71
2024/04/10 09:32:04;;;;;;;;;;;;;;;;;;7583502;19;19919;-73
2024/04/10 09:34:36;;;;;;;;;;;;;;;;;;7594676;19;19927;-72
2024/04/10 09:37:08;;;;;;;;;;;;;;;;;;7587374;19;19919;-73
2024/04/10 09:39:40;;;;;;;;;;;;;;;;;;7592503;19;19982;-71
2024/04/10 09:42:11;;;;;;;;;;;;;;;;;;7588623;19;19919;-73
2024/04/10 09:44:43;;;;;;;;;;;;;;;;;;7590295;19;19922;-73
2024/04/10 09:47:14;;;;;;;;;;;;;;;;;;7579305;19;20174;-73
2024/04/10 09:49:46;;;;;;;;;;;;;;;;;;7588277;19;20649;-72
2024/04/10 09:52:18;;;;;;;;;;;;;;;;;;7578526;19;19960;-72
2024/04/10 09:54:49;;;;;;;;;;;;;;;;;;7579781;19;19930;-72
2024/04/10 09:57:21;;;;;;;;;;;;;;;;;;7573036;19;19922;-73
2024/04/10 09:59:52;;;;;;;;;;;;;;;;;;7586596;19;20780;-72
2024/04/10 10:02:24;;;;;;;;;;;;;;;;;;7588401;19;19919;-73
2024/04/10 10:04:55;;;;;;;;;;;;;;;;;;7587181;19;20534;-72
2024/04/10 10:07:27;;;;;;;;;;;;;;;;;;7590478;19;19925;-73
2024/04/10 10:09:58;;;;;;;;;;;;;;;;;;7579905;19;20510;-72
2024/04/10 10:12:30;;;;;;;;;;;;;;;;;;7585154;19;19919;-73
2024/04/10 10:15:01;;;;;;;;;;;;;;;;;;7583991;19;20270;-73
2024/04/10 10:17:33;;;;;;;;;;;;;;;;;;7582557;19;19922;-73
2024/04/10 10:20:04;;;;;;;;;;;;;;;;;;7592816;19;19933;-73
2024/04/10 10:22:36;;;;;;;;;;;;;;;;;;7602641;19;19938;-73
2024/04/10 10:25:07;;;;;;;;;;;;;;;;;;7583716;19;19946;-73
2024/04/10 10:27:41;;;;;;;;;;;;;;;;;;7576908;19;19954;-73
2024/04/10 10:30:13;;;;;;;;;;;;;;;;;;7555931;19;20232;-72
2024/04/10 10:32:44;;;;;;;;;;;;;;;;;;7533043;19;19993;-72
2024/04/10 10:35:15;;;;;;;;;;;;;;;;;;7545488;19;20053;-72
2024/04/10 10:37:47;;;;;;;;;;;;;;;;;;7551645;19;19926;-72
2024/04/10 10:40:19;;;;;;;;;;;;;;;;;;7563591;19;19949;-73
2024/04/10 10:42:50;;;;;;;;;;;;;;;;;;7544980;19;19972;-72
2024/04/10 10:45:21;;;;;;;;;;;;;;;;;;7562151;19;19922;-74
2024/04/10 10:47:53;;;;;;;;;;;;;;;;;;7560004;19;20002;-73
2024/04/10 10:50:25;;;;;;;;;;;;;;;;;;7542848;19;19927;-72
2024/04/10 10:52:57;;;;;;;;;;;;;;;;;;7548238;19;19929;-73
2024/04/10 10:55:28;;;;;;;;;;;;;;;;;;7532089;19;19915;-73
2024/04/10 10:58:00;;;;;;;;;;;;;;;;;;7546832;19;19922;-73
2024/04/10 11:00:31;;;;;;;;;;;;;;;;;;7550292;19;19929;-73
2024/04/10 11:03:03;;;;;;;;;;;;;;;;;;7542817;19;22601;-72
2024/04/10 11:05:34;;;;;;;;;;;;;;;;;;7573928;19;19927;-73
2024/04/10 11:08:07;;;;;;;;;;;;;;;;;;7554710;19;19923;-73
2024/04/10 11:10:38;;;;;;;;;;;;;;;;;;7589252;19;21038;-73
2024/04/10 11:13:09;;;;;;;;;;;;;;;;;;7577393;19;19915;-72
2024/04/10 11:15:51;;;;;;;;;;;;;;;;;;7547103;19;20694;-74
2024/04/10 11:18:22;;;;;;;;;;;;;;;;;;7501494;19;19922;-74
2024/04/10 11:20:54;;;;;;;;;;;;;;;;;;7511245;19;19926;-73
2024/04/10 11:23:28;;;;;;;;;;;;;;;;;;7522328;19;19923;-73
2024/04/10 11:26:00;;;;;;;;;;;;;;;;;;7526033;19;19930;-73
2024/04/10 11:28:32;;;;;;;;;;;;;;;;;;7488233;19;19919;-74
2024/04/10 11:31:04;;;;;;;;;;;;;;;;;;7517566;19;19962;-73
2024/04/10 11:33:36;;;;;;;;;;;;;;;;;;7514549;19;20683;-73
2024/04/10 11:36:08;;;;;;;;;;;;;;;;;;7499931;19;19923;-73
2024/04/10 11:38:42;;;;;;;;;;;;;;;;;;7529225;19;19923;-72
2024/04/10 11:41:14;;;;;;;;;;;;;;;;;;7537897;19;19922;-73
2024/04/10 11:43:46;;;;;;;;;;;;;;;;;;7538857;19;19922;-73
2024/04/10 11:46:18;;;;;;;;;;;;;;;;;;7513118;19;19922;-74
2024/04/10 11:48:50;;;;;;;;;;;;;;;;;;7506703;19;19937;-73
2024/04/10 11:51:22;;;;;;;;;;;;;;;;;;7527245;19;19931;-73
2024/04/10 11:53:53;;;;;;;;;;;;;;;;;;7524611;19;20284;-74
2024/04/10 11:56:31;;;;;;;;;;;;;;;;;;7470809;19;51659;-73
2024/04/10 11:59:06;;;;;;;;;;;;;;;;;;7338926;19;21544;-72
2024/04/10 12:01:38;;;;;;;;;;;;;;;;;;7354415;19;51639;-72
2024/04/10 12:04:10;;;;;;;;;;;;;;;;;;7334801;19;104819;-73
2024/04/10 12:06:53;;;;;;;;;;;;;;;;;;7357129;19;105626;-71
2024/04/10 12:09:27;;;;;;;;;;;;;;;;;;7368855;19;19958;-75
2024/04/10 12:12:00;;;;;;;;;;;;;;;;;;7350102;19;51937;-71
2024/04/10 12:14:33;;;;;;;;;;;;;;;;;;7378451;19;51289;-73
2024/04/10 12:17:06;;;;;;;;;;;;;;;;;;7377000;19;52880;-73
2024/04/10 12:19:38;;;;;;;;;;;;;;;;;;7355936;19;52350;-72
2024/04/10 12:22:11;;;;;;;;;;;;;;;;;;7360502;19;205288;-72
2024/04/10 12:24:49;;;;;;;;;;;;;;;;;;7345473;19;103580;-72
2024/04/10 12:27:21;;;;;;;;;;;;;;;;;;7349233;19;104733;-73
2024/04/10 12:29:53;;;;;;;;;;;;;;;;;;7442468;19;19910;-73
2024/04/10 12:32:25;;;;;;;;;;;;;;;;;;7579763;19;19933;-74
2024/04/10 12:38:03;;;;;;;;;;;;;;;;;;7582993;19;20671;-73
2024/04/10 12:40:35;;;;;;;;;;;;;;;;;;7574353;19;19918;-73
2024/04/10 12:43:08;;;;;;;;;;;;;;;;;;7580074;19;20015;-73
2024/04/10 12:45:40;;;;;;;;;;;;;;;;;;7569778;19;20471;-74
2024/04/10 12:48:12;;;;;;;;;;;;;;;;;;7571149;19;20852;-75
2024/04/10 12:50:44;;;;;;;;;;;;;;;;;;7580178;19;19923;-74
2024/04/10 12:53:16;;;;;;;;;;;;;;;;;;7566347;19;19926;-72
2024/04/10 12:55:47;;;;;;;;;;;;;;;;;;7577070;19;22061;-74
2024/04/10 12:58:19;;;;;;;;;;;;;;;;;;7575596;19;19919;-74
2024/04/10 13:00:50;;;;;;;;;;;;;;;;;;7581725;19;20014;-73
2024/04/10 13:03:23;;;;;;;;;;;;;;;;;;7576936;19;19923;-73
2024/04/10 13:05:58;;;;;;;;;;;;;;;;;;7569770;19;19919;-73
2024/04/10 13:08:29;;;;;;;;;;;;;;;;;;7568862;19;19935;-74
2024/04/10 13:11:01;;;;;;;;;;;;;;;;;;7575302;19;20323;-72
2024/04/10 13:13:33;;;;;;;;;;;;;;;;;;7571666;19;20745;-73
2024/04/10 13:16:04;;;;;;;;;;;;;;;;;;7576433;19;20737;-73
2024/04/10 13:18:43;;;;;;;;;;;;;;;;;;7537773;19;20887;-72
2024/04/10 13:21:14;;;;;;;;;;;;;;;;;;7566501;19;20001;-73
2024/04/10 13:23:47;;;;;;;;;;;;;;;;;;7556865;19;19918;-73
2024/04/10 13:26:18;;;;;;;;;;;;;;;;;;7541220;19;19917;-74
2024/04/10 13:28:52;;;;;;;;;;;;;;;;;;7539519;19;19967;-72
2024/04/10 13:31:23;;;;;;;;;;;;;;;;;;7547463;19;19922;-72
2024/04/10 13:33:58;;;;;;;;;;;;;;;;;;7546037;19;19923;-72
2024/04/10 13:36:30;;;;;;;;;;;;;;;;;;7541598;19;19926;-71
2024/04/10 13:39:01;;;;;;;;;;;;;;;;;;7560215;19;19923;-72
2024/04/10 13:41:35;;;;;;;;;;;;;;;;;;7528533;19;19926;-71
2024/04/10 13:44:06;;;;;;;;;;;;;;;;;;7523094;19;19927;-71
2024/04/10 13:46:40;;;;;;;;;;;;;;;;;;7476775;19;20073;-72
2024/04/10 13:49:13;;;;;;;;;;;;;;;;;;7496411;19;20535;-72
2024/04/10 13:51:46;;;;;;;;;;;;;;;;;;7533191;19;19926;-71
2024/04/10 13:54:19;;;;;;;;;;;;;;;;;;7501733;19;19923;-71
2024/04/10 13:56:51;;;;;;;;;;;;;;;;;;7509458;19;19922;-74
2024/04/10 13:59:22;;;;;;;;;;;;;;;;;;7494450;19;20844;-74
2024/04/10 14:01:53;;;;;;;;;;;;;;;;;;7513445;19;20621;-72
2024/04/10 14:04:25;;;;;;;;;;;;;;;;;;7523535;19;19960;-72
2024/04/10 14:06:58;;;;;;;;;;;;;;;;;;7479756;19;20013;-72
2024/04/10 14:09:29;;;;;;;;;;;;;;;;;;7455249;19;944211;-72
2024/04/10 14:12:01;;;;;;;;;;;;;;;;;;7489080;19;22340;-72
2024/04/10 14:14:34;;;;;;;;;;;;;;;;;;7515820;19;20578;-73
2024/04/10 14:17:07;;;;;;;;;;;;;;;;;;7558020;19;19918;-72
2024/04/10 14:19:38;;;;;;;;;;;;;;;;;;7552194;19;20005;-73
2024/04/10 14:22:10;;;;;;;;;;;;;;;;;;7535086;19;19915;-73
2024/04/10 14:24:41;;;;;;;;;;;;;;;;;;7543696;19;22215;-73
2024/04/10 14:27:13;;;;;;;;;;;;;;;;;;7553121;19;20404;-71
2024/04/10 14:29:45;;;;;;;;;;;;;;;;;;7572223;19;20520;-71
2024/04/10 14:32:16;;;;;;;;;;;;;;;;;;7576533;19;19922;-72
2024/04/10 14:34:47;;;;;;;;;;;;;;;;;;7570143;19;19954;-73
2024/04/10 14:37:19;;;;;;;;;;;;;;;;;;7568851;19;19915;-73
2024/04/10 14:39:50;;;;;;;;;;;;;;;;;;7554115;19;19922;-72
2024/04/10 14:42:22;;;;;;;;;;;;;;;;;;7558591;19;19926;-73
2024/04/10 14:44:53;;;;;;;;;;;;;;;;;;7547437;19;19958;-72
2024/04/10 14:47:25;;;;;;;;;;;;;;;;;;7579586;19;20292;-73
2024/04/10 14:49:56;;;;;;;;;;;;;;;;;;7554432;19;20202;-73
2024/04/10 14:52:30;;;;;;;;;;;;;;;;;;7578490;19;20873;-72
2024/04/10 14:55:02;;;;;;;;;;;;;;;;;;7576100;19;19922;-71
2024/04/10 14:57:33;;;;;;;;;;;;;;;;;;7582858;19;19915;-71
2024/04/10 15:00:05;;;;;;;;;;;;;;;;;;7582315;19;20740;-72
2024/04/10 15:02:38;;;;;;;;;;;;;;;;;;7544356;19;19942;-72
2024/04/10 15:05:09;;;;;;;;;;;;;;;;;;7561598;19;20520;-73
2024/04/10 15:07:40;;;;;;;;;;;;;;;;;;7586703;19;20492;-72
2024/04/10 15:10:12;;;;;;;;;;;;;;;;;;7569460;19;20511;-72
2024/04/10 15:12:43;;;;;;;;;;;;;;;;;;7559406;19;20492;-71
2024/04/10 15:15:15;;;;;;;;;;;;;;;;;;7567344;19;19927;-71
2024/04/10 15:17:46;;;;;;;;;;;;;;;;;;7586997;19;19949;-72
2024/04/10 15:20:18;;;;;;;;;;;;;;;;;;7555026;19;19957;-71
2024/04/10 15:22:49;;;;;;;;;;;;;;;;;;7572191;19;19936;-71
2024/04/10 15:25:20;;;;;;;;;;;;;;;;;;7573842;19;20274;-71
2024/04/10 15:27:53;;;;;;;;;;;;;;;;;;7549843;19;19926;-72
2024/04/10 15:30:24;;;;;;;;;;;;;;;;;;7550417;19;20467;-71
2024/04/10 15:32:56;;;;;;;;;;;;;;;;;;7556737;19;20002;-72
2024/04/10 15:35:28;;;;;;;;;;;;;;;;;;7555092;19;19923;-71
2024/04/10 15:38:00;;;;;;;;;;;;;;;;;;7565569;19;19915;-72
2024/04/10 15:40:31;;;;;;;;;;;;;;;;;;7567909;19;19919;-72
2024/04/10 15:43:03;;;;;;;;;;;;;;;;;;7590037;19;19934;-71
2024/04/10 15:45:34;;;;;;;;;;;;;;;;;;7571730;19;19923;-71
2024/04/10 15:48:05;;;;;;;;;;;;;;;;;;7577204;19;19942;-70
2024/04/10 15:50:37;;;;;;;;;;;;;;;;;;7575925;19;19986;-71
2024/04/10 15:53:09;;;;;;;;;;;;;;;;;;7575826;19;19929;-71
2024/04/10 15:55:40;;;;;;;;;;;;;;;;;;7577425;19;19923;-71
2024/04/10 15:58:12;;;;;;;;;;;;;;;;;;7563815;19;20007;-71
2024/04/10 16:00:44;;;;;;;;;;;;;;;;;;7547175;19;21224;-72
2024/04/10 16:03:15;;;;;;;;;;;;;;;;;;7574950;19;19922;-73
2024/04/10 16:05:47;;;;;;;;;;;;;;;;;;7567640;19;19927;-71
2024/04/10 16:08:19;;;;;;;;;;;;;;;;;;7562918;19;19939;-70
2024/04/10 16:10:50;;;;;;;;;;;;;;;;;;7553869;19;19926;-73
2024/04/10 16:13:23;;;;;;;;;;;;;;;;;;7570899;19;19915;-73
2024/04/10 16:15:54;;;;;;;;;;;;;;;;;;7567678;19;19929;-72
2024/04/10 16:18:26;;;;;;;;;;;;;;;;;;7552248;19;19919;-71
2024/04/10 16:20:57;;;;;;;;;;;;;;;;;;7563421;19;20006;-72
2024/04/10 16:23:29;;;;;;;;;;;;;;;;;;7541362;19;19926;-71
2024/04/10 16:26:00;;;;;;;;;;;;;;;;;;7559156;19;19925;-71
2024/04/10 16:28:32;;;;;;;;;;;;;;;;;;7492007;19;20272;-71
2024/04/10 16:31:03;;;;;;;;;;;;;;;;;;7555524;19;20276;-71
2024/04/10 16:33:35;;;;;;;;;;;;;;;;;;7562288;19;19927;-71
2024/04/10 16:36:06;;;;;;;;;;;;;;;;;;7525262;19;19926;-72
2024/04/10 16:38:38;;;;;;;;;;;;;;;;;;7545616;19;19990;-71
2024/04/10 16:41:09;;;;;;;;;;;;;;;;;;7562469;19;19922;-71
2024/04/10 16:43:42;;;;;;;;;;;;;;;;;;7009390;19;10000508;-71
2024/04/10 16:46:13;;;;;;;;;;;;;;;;;;7536536;19;19990;-71
2024/04/10 16:48:46;;;;;;;;;;;;;;;;;;7544535;19;19930;-71
2024/04/10 16:51:17;;;;;;;;;;;;;;;;;;7567793;19;19923;-71
2024/04/10 16:53:51;;;;;;;;;;;;;;;;;;7545129;19;19923;-71
2024/04/10 16:56:22;;;;;;;;;;;;;;;;;;7532589;19;19926;-71
2024/04/10 16:58:53;;;;;;;;;;;;;;;;;;7560204;19;19919;-71
2024/04/10 17:01:25;;;;;;;;;;;;;;;;;;7557844;19;20361;-71
2024/04/10 17:03:57;;;;;;;;;;;;;;;;;;7541819;19;19915;-71
2024/04/10 17:06:28;;;;;;;;;;;;;;;;;;7572399;19;19918;-71
2024/04/10 17:08:59;;;;;;;;;;;;;;;;;;7586450;19;19935;-72
2024/04/10 17:11:31;;;;;;;;;;;;;;;;;;7575559;19;19914;-70
2024/04/10 17:14:03;;;;;;;;;;;;;;;;;;7548351;19;20368;-71
2024/04/10 17:16:35;;;;;;;;;;;;;;;;;;7563240;19;19919;-71
2024/04/10 17:21:56;;;;;;;;;;;;;;;;;;7557935;19;19928;-71
2024/04/10 17:24:28;;;;;;;;;;;;;;;;;;7582738;19;19919;-70
2024/04/10 17:26:59;;;;;;;;;;;;;;;;;;7557406;19;19919;-71